sensor_id;sensor_type;location;lat;lon;timestamp;temperature;humidity
70676;DHT22;59069;52.242;20.900;2022-11-15T00:00:33;6.31;87.00
70676;DHT22;59069;52.242;20.900;2022-11-15T00:02:58;6.34;87.01
70676;DHT22;59069;52.242;20.900;2022-11-15T00:05:24;6.34;86.98
70676;DHT22;59069;52.242;20.900;2022-11-15T00:07:50;6.31;86.96
70676;DHT22;59069;52.242;20.900;2022-11-15T00:10:15;6.27;87.00
70676;DHT22;59069;52.242;20.900;2022-11-15T00:12:41;6.24;87.07
70676;DHT22;59069;52.242;20.900;2022-11-15T00:15:07;6.20;87.28
70676;DHT22;59069;52.242;20.900;2022-11-15T00:17:32;6.19;87.40
70676;DHT22;59069;52.242;20.900;2022-11-15T00:19:58;6.14;87.56
70676;DHT22;59069;52.242;20.900;2022-11-15T00:22:23;6.14;87.67
70676;DHT22;59069;52.242;20.900;2022-11-15T00:24:49;6.14;87.74
70676;DHT22;59069;52.242;20.900;2022-11-15T00:27:14;6.16;87.65
70676;DHT22;59069;52.242;20.900;2022-11-15T00:29:40;6.17;87.73
70676;DHT22;59069;52.242;20.900;2022-11-15T00:32:09;6.19;87.86
70676;DHT22;59069;52.242;20.900;2022-11-15T00:34:35;6.21;87.93
70676;DHT22;59069;52.242;20.900;2022-11-15T00:37:00;6.24;87.90
70676;DHT22;59069;52.242;20.900;2022-11-15T00:39:26;6.24;87.83
70676;DHT22;59069;52.242;20.900;2022-11-15T00:41:51;6.23;87.84
70676;DHT22;59069;52.242;20.900;2022-11-15T00:44:17;6.26;87.82
70676;DHT22;59069;52.242;20.900;2022-11-15T00:46:42;6.24;87.83
70676;DHT22;59069;52.242;20.900;2022-11-15T00:49:08;6.20;87.88
70676;DHT22;59069;52.242;20.900;2022-11-15T00:51:33;6.16;88.00
70676;DHT22;59069;52.242;20.900;2022-11-15T00:53:58;6.16;88.21
70676;DHT22;59069;52.242;20.900;2022-11-15T00:56:24;6.13;88.20
70676;DHT22;59069;52.242;20.900;2022-11-15T00:58:49;6.12;88.35
70676;DHT22;59069;52.242;20.900;2022-11-15T01:01:15;6.19;88.46
70676;DHT22;59069;52.242;20.900;2022-11-15T01:03:41;6.17;88.41
70676;DHT22;59069;52.242;20.900;2022-11-15T01:06:07;6.20;88.43
70676;DHT22;59069;52.242;20.900;2022-11-15T01:08:33;6.17;88.33
70676;DHT22;59069;52.242;20.900;2022-11-15T01:11:07;6.19;88.40
70676;DHT22;59069;52.242;20.900;2022-11-15T01:13:34;6.20;88.49
70676;DHT22;59069;52.242;20.900;2022-11-15T01:16:08;6.20;88.41
70676;DHT22;59069;52.242;20.900;2022-11-15T01:18:34;6.13;88.28
70676;DHT22;59069;52.242;20.900;2022-11-15T01:21:00;6.10;88.28
70676;DHT22;59069;52.242;20.900;2022-11-15T01:23:29;6.06;88.47
70676;DHT22;59069;52.242;20.900;2022-11-15T01:25:59;6.05;88.71
70676;DHT22;59069;52.242;20.900;2022-11-15T01:28:25;6.02;88.97
70676;DHT22;59069;52.242;20.900;2022-11-15T01:30:50;6.02;88.92
70676;DHT22;59069;52.242;20.900;2022-11-15T01:33:16;6.02;89.05
70676;DHT22;59069;52.242;20.900;2022-11-15T01:35:41;6.03;89.08
70676;DHT22;59069;52.242;20.900;2022-11-15T01:38:07;6.03;89.17
70676;DHT22;59069;52.242;20.900;2022-11-15T01:40:32;6.05;89.18
70676;DHT22;59069;52.242;20.900;2022-11-15T01:42:57;6.05;89.14
70676;DHT22;59069;52.242;20.900;2022-11-15T01:45:23;6.07;89.14
70676;DHT22;59069;52.242;20.900;2022-11-15T01:47:51;6.09;89.19
70676;DHT22;59069;52.242;20.900;2022-11-15T01:50:22;6.14;89.18
70676;DHT22;59069;52.242;20.900;2022-11-15T01:52:48;6.16;89.03
70676;DHT22;59069;52.242;20.900;2022-11-15T01:57:44;6.07;88.88
70676;DHT22;59069;52.242;20.900;2022-11-15T02:00:12;6.03;89.12
70676;DHT22;59069;52.242;20.900;2022-11-15T02:02:38;6.06;89.25
70676;DHT22;59069;52.242;20.900;2022-11-15T02:05:04;6.06;89.30
70676;DHT22;59069;52.242;20.900;2022-11-15T02:07:31;6.06;89.32
70676;DHT22;59069;52.242;20.900;2022-11-15T02:10:04;6.06;89.31
70676;DHT22;59069;52.242;20.900;2022-11-15T02:12:31;6.07;89.35
70676;DHT22;59069;52.242;20.900;2022-11-15T02:14:57;6.07;89.49
70676;DHT22;59069;52.242;20.900;2022-11-15T02:17:34;6.10;89.42
70676;DHT22;59069;52.242;20.900;2022-11-15T02:20:13;6.12;89.37
70676;DHT22;59069;52.242;20.900;2022-11-15T02:28:22;6.17;89.28
70676;DHT22;59069;52.242;20.900;2022-11-15T02:39:28;6.23;89.40
70676;DHT22;59069;52.242;20.900;2022-11-15T02:42:11;6.26;89.32
70676;DHT22;59069;52.242;20.900;2022-11-15T02:44:58;6.24;89.08
70676;DHT22;59069;52.242;20.900;2022-11-15T02:47:27;6.20;88.93
70676;DHT22;59069;52.242;20.900;2022-11-15T02:49:58;6.21;88.96
70676;DHT22;59069;52.242;20.900;2022-11-15T02:52:25;6.19;88.99
70676;DHT22;59069;52.242;20.900;2022-11-15T02:54:56;6.21;89.23
70676;DHT22;59069;52.242;20.900;2022-11-15T02:57:34;6.24;89.16
70676;DHT22;59069;52.242;20.900;2022-11-15T03:00:05;6.24;89.01
70676;DHT22;59069;52.242;20.900;2022-11-15T03:13:31;6.05;89.44
70676;DHT22;59069;52.242;20.900;2022-11-15T03:16:15;6.10;89.40
70676;DHT22;59069;52.242;20.900;2022-11-15T03:18:44;6.07;89.34
70676;DHT22;59069;52.242;20.900;2022-11-15T03:21:12;6.10;89.29
70676;DHT22;59069;52.242;20.900;2022-11-15T03:23:40;6.10;89.25
70676;DHT22;59069;52.242;20.900;2022-11-15T03:26:09;6.07;89.18
70676;DHT22;59069;52.242;20.900;2022-11-15T03:28:46;6.05;89.23
70676;DHT22;59069;52.242;20.900;2022-11-15T03:31:15;6.02;89.25
70676;DHT22;59069;52.242;20.900;2022-11-15T03:34:03;5.98;89.26
70676;DHT22;59069;52.242;20.900;2022-11-15T03:36:32;5.95;89.38
70676;DHT22;59069;52.242;20.900;2022-11-15T03:39:02;5.92;89.46
70676;DHT22;59069;52.242;20.900;2022-11-15T03:41:50;5.92;89.54
70676;DHT22;59069;52.242;20.900;2022-11-15T03:49:50;5.89;89.68
70676;DHT22;59069;52.242;20.900;2022-11-15T03:52:18;5.85;89.85
70676;DHT22;59069;52.242;20.900;2022-11-15T03:54:53;5.88;89.94
70676;DHT22;59069;52.242;20.900;2022-11-15T03:57:18;5.86;89.73
70676;DHT22;59069;52.242;20.900;2022-11-15T03:59:44;5.82;89.68
70676;DHT22;59069;52.242;20.900;2022-11-15T04:02:10;5.80;89.90
70676;DHT22;59069;52.242;20.900;2022-11-15T04:04:35;5.82;89.93
70676;DHT22;59069;52.242;20.900;2022-11-15T04:07:00;5.79;89.98
70676;DHT22;59069;52.242;20.900;2022-11-15T04:09:26;5.82;90.22
70676;DHT22;59069;52.242;20.900;2022-11-15T04:11:51;5.86;90.35
70676;DHT22;59069;52.242;20.900;2022-11-15T04:14:17;5.88;90.43
70676;DHT22;59069;52.242;20.900;2022-11-15T04:16:42;5.96;90.46
70676;DHT22;59069;52.242;20.900;2022-11-15T04:19:07;5.96;90.30
70676;DHT22;59069;52.242;20.900;2022-11-15T04:21:51;5.95;90.21
70676;DHT22;59069;52.242;20.900;2022-11-15T04:24:35;5.92;90.10
70676;DHT22;59069;52.242;20.900;2022-11-15T04:27:01;5.92;90.17
70676;DHT22;59069;52.242;20.900;2022-11-15T04:29:26;5.95;90.33
70676;DHT22;59069;52.242;20.900;2022-11-15T04:32:05;5.99;90.39
70676;DHT22;59069;52.242;20.900;2022-11-15T04:34:31;6.05;90.33
70676;DHT22;59069;52.242;20.900;2022-11-15T04:36:56;6.06;90.07
70676;DHT22;59069;52.242;20.900;2022-11-15T04:39:38;6.07;89.92
70676;DHT22;59069;52.242;20.900;2022-11-15T04:42:03;6.09;89.89
70676;DHT22;59069;52.242;20.900;2022-11-15T04:44:29;6.13;89.86
70676;DHT22;59069;52.242;20.900;2022-11-15T04:46:54;6.10;89.88
70676;DHT22;59069;52.242;20.900;2022-11-15T04:49:20;6.14;89.93
70676;DHT22;59069;52.242;20.900;2022-11-15T04:51:45;6.13;89.84
70676;DHT22;59069;52.242;20.900;2022-11-15T04:54:10;6.14;89.75
70676;DHT22;59069;52.242;20.900;2022-11-15T04:56:36;6.17;89.57
70676;DHT22;59069;52.242;20.900;2022-11-15T04:59:01;6.16;89.47
70676;DHT22;59069;52.242;20.900;2022-11-15T05:01:27;6.14;89.49
70676;DHT22;59069;52.242;20.900;2022-11-15T05:03:52;6.16;89.55
70676;DHT22;59069;52.242;20.900;2022-11-15T05:06:36;6.16;89.55
70676;DHT22;59069;52.242;20.900;2022-11-15T05:09:02;6.16;89.65
70676;DHT22;59069;52.242;20.900;2022-11-15T05:11:27;6.19;89.61
70676;DHT22;59069;52.242;20.900;2022-11-15T05:13:53;6.20;89.65
70676;DHT22;59069;52.242;20.900;2022-11-15T05:16:18;6.21;89.53
70676;DHT22;59069;52.242;20.900;2022-11-15T05:18:44;6.26;89.43
70676;DHT22;59069;52.242;20.900;2022-11-15T05:21:12;6.26;89.33
70676;DHT22;59069;52.242;20.900;2022-11-15T05:23:38;6.21;89.24
70676;DHT22;59069;52.242;20.900;2022-11-15T05:26:05;6.20;89.24
70676;DHT22;59069;52.242;20.900;2022-11-15T05:28:31;6.19;89.23
70676;DHT22;59069;52.242;20.900;2022-11-15T05:31:05;6.16;89.31
70676;DHT22;59069;52.242;20.900;2022-11-15T05:33:31;6.17;89.31
70676;DHT22;59069;52.242;20.900;2022-11-15T05:38:45;6.12;89.22
70676;DHT22;59069;52.242;20.900;2022-11-15T05:41:11;6.12;89.35
70676;DHT22;59069;52.242;20.900;2022-11-15T05:43:39;6.12;89.35
70676;DHT22;59069;52.242;20.900;2022-11-15T05:46:06;6.10;89.31
70676;DHT22;59069;52.242;20.900;2022-11-15T05:48:33;6.12;89.48
70676;DHT22;59069;52.242;20.900;2022-11-15T05:50:59;6.10;89.22
70676;DHT22;59069;52.242;20.900;2022-11-15T05:53:25;6.10;89.17
70676;DHT22;59069;52.242;20.900;2022-11-15T05:55:51;6.07;89.19
70676;DHT22;59069;52.242;20.900;2022-11-15T05:58:18;6.05;89.29
70676;DHT22;59069;52.242;20.900;2022-11-15T06:00:44;6.02;89.35
70676;DHT22;59069;52.242;20.900;2022-11-15T06:03:10;6.02;89.43
70676;DHT22;59069;52.242;20.900;2022-11-15T06:05:36;6.05;89.30
70676;DHT22;59069;52.242;20.900;2022-11-15T06:08:01;6.03;89.19
70676;DHT22;59069;52.242;20.900;2022-11-15T06:10:26;6.00;89.21
70676;DHT22;59069;52.242;20.900;2022-11-15T06:15:24;6.00;89.12
70676;DHT22;59069;52.242;20.900;2022-11-15T06:17:49;6.03;89.17
70676;DHT22;59069;52.242;20.900;2022-11-15T06:20:15;6.05;89.12
70676;DHT22;59069;52.242;20.900;2022-11-15T06:22:40;6.03;89.25
70676;DHT22;59069;52.242;20.900;2022-11-15T06:25:06;6.05;89.31
70676;DHT22;59069;52.242;20.900;2022-11-15T06:27:31;6.03;89.23
70676;DHT22;59069;52.242;20.900;2022-11-15T06:29:57;5.96;89.13
70676;DHT22;59069;52.242;20.900;2022-11-15T06:32:22;5.92;89.27
70676;DHT22;59069;52.242;20.900;2022-11-15T06:34:48;5.93;89.48
70676;DHT22;59069;52.242;20.900;2022-11-15T06:37:13;5.93;89.50
70676;DHT22;59069;52.242;20.900;2022-11-15T06:39:38;5.93;89.39
70676;DHT22;59069;52.242;20.900;2022-11-15T06:42:04;5.93;89.43
70676;DHT22;59069;52.242;20.900;2022-11-15T06:44:29;5.90;89.37
70676;DHT22;59069;52.242;20.900;2022-11-15T06:46:55;5.89;89.26
70676;DHT22;59069;52.242;20.900;2022-11-15T06:49:20;5.86;88.96
70676;DHT22;59069;52.242;20.900;2022-11-15T06:51:46;5.79;88.84
70676;DHT22;59069;52.242;20.900;2022-11-15T06:54:11;5.73;89.10
70676;DHT22;59069;52.242;20.900;2022-11-15T06:56:36;5.72;89.15
70676;DHT22;59069;52.242;20.900;2022-11-15T06:59:12;5.69;88.92
70676;DHT22;59069;52.242;20.900;2022-11-15T07:01:37;5.69;88.89
70676;DHT22;59069;52.242;20.900;2022-11-15T07:04:03;5.63;88.99
70676;DHT22;59069;52.242;20.900;2022-11-15T07:06:28;5.65;89.19
70676;DHT22;59069;52.242;20.900;2022-11-15T07:08:53;5.66;89.11
70676;DHT22;59069;52.242;20.900;2022-11-15T07:11:19;5.65;89.07
70676;DHT22;59069;52.242;20.900;2022-11-15T07:13:44;5.63;89.16
70676;DHT22;59069;52.242;20.900;2022-11-15T07:16:10;5.68;89.29
70676;DHT22;59069;52.242;20.900;2022-11-15T07:18:37;5.69;89.21
70676;DHT22;59069;52.242;20.900;2022-11-15T07:21:04;5.69;89.11
70676;DHT22;59069;52.242;20.900;2022-11-15T07:23:30;5.66;89.00
70676;DHT22;59069;52.242;20.900;2022-11-15T07:25:59;5.62;88.95
70676;DHT22;59069;52.242;20.900;2022-11-15T07:28:25;5.65;89.10
70676;DHT22;59069;52.242;20.900;2022-11-15T07:30:51;5.69;89.15
70676;DHT22;59069;52.242;20.900;2022-11-15T07:33:16;5.68;89.13
70676;DHT22;59069;52.242;20.900;2022-11-15T07:35:42;5.73;89.14
70676;DHT22;59069;52.242;20.900;2022-11-15T07:38:08;5.73;89.05
70676;DHT22;59069;52.242;20.900;2022-11-15T07:40:34;5.78;89.11
70676;DHT22;59069;52.242;20.900;2022-11-15T07:43:04;5.82;89.12
70676;DHT22;59069;52.242;20.900;2022-11-15T07:45:30;5.83;89.16
70676;DHT22;59069;52.242;20.900;2022-11-15T07:47:56;5.85;89.26
70676;DHT22;59069;52.242;20.900;2022-11-15T07:50:23;5.85;89.06
70676;DHT22;59069;52.242;20.900;2022-11-15T07:52:59;5.92;89.12
70676;DHT22;59069;52.242;20.900;2022-11-15T07:55:26;5.96;89.12
70676;DHT22;59069;52.242;20.900;2022-11-15T07:58:06;5.99;88.79
70676;DHT22;59069;52.242;20.900;2022-11-15T08:00:31;5.99;88.59
70676;DHT22;59069;52.242;20.900;2022-11-15T08:05:32;6.00;88.41
70676;DHT22;59069;52.242;20.900;2022-11-15T08:07:58;6.03;88.36
70676;DHT22;59069;52.242;20.900;2022-11-15T08:10:24;6.12;88.25
70676;DHT22;59069;52.242;20.900;2022-11-15T08:13:16;6.12;88.01
70676;DHT22;59069;52.242;20.900;2022-11-15T08:15:42;6.12;87.94
70676;DHT22;59069;52.242;20.900;2022-11-15T08:18:14;6.14;88.11
70676;DHT22;59069;52.242;20.900;2022-11-15T08:20:40;6.13;88.00
70676;DHT22;59069;52.242;20.900;2022-11-15T08:23:06;6.19;88.02
70676;DHT22;59069;52.242;20.900;2022-11-15T08:25:32;6.17;87.70
70676;DHT22;59069;52.242;20.900;2022-11-15T08:28:00;6.20;87.80
70676;DHT22;59069;52.242;20.900;2022-11-15T08:30:27;6.23;87.84
70676;DHT22;59069;52.242;20.900;2022-11-15T08:32:53;6.27;88.00
70676;DHT22;59069;52.242;20.900;2022-11-15T08:35:20;6.31;87.96
70676;DHT22;59069;52.242;20.900;2022-11-15T08:37:45;6.34;87.82
70676;DHT22;59069;52.242;20.900;2022-11-15T08:40:11;6.37;87.41
70676;DHT22;59069;52.242;20.900;2022-11-15T08:42:38;6.33;87.00
70676;DHT22;59069;52.242;20.900;2022-11-15T08:45:04;6.30;86.86
70676;DHT22;59069;52.242;20.900;2022-11-15T08:47:29;6.27;87.01
70676;DHT22;59069;52.242;20.900;2022-11-15T08:49:55;6.23;87.08
70676;DHT22;59069;52.242;20.900;2022-11-15T08:52:21;6.20;87.35
70676;DHT22;59069;52.242;20.900;2022-11-15T08:54:46;6.24;87.48
70676;DHT22;59069;52.242;20.900;2022-11-15T08:57:12;6.26;87.54
70676;DHT22;59069;52.242;20.900;2022-11-15T08:59:38;6.26;87.51
70676;DHT22;59069;52.242;20.900;2022-11-15T09:02:04;6.31;87.51
70676;DHT22;59069;52.242;20.900;2022-11-15T09:04:30;6.33;87.40
70676;DHT22;59069;52.242;20.900;2022-11-15T09:06:56;6.36;87.30
70676;DHT22;59069;52.242;20.900;2022-11-15T09:09:21;6.33;87.07
70676;DHT22;59069;52.242;20.900;2022-11-15T09:11:47;6.37;87.23
70676;DHT22;59069;52.242;20.900;2022-11-15T09:14:13;6.33;87.28
70676;DHT22;59069;52.242;20.900;2022-11-15T09:16:38;6.38;87.58
70676;DHT22;59069;52.242;20.900;2022-11-15T09:19:04;6.43;87.40
70676;DHT22;59069;52.242;20.900;2022-11-15T09:21:30;6.48;87.33
70676;DHT22;59069;52.242;20.900;2022-11-15T09:23:56;6.51;87.30
70676;DHT22;59069;52.242;20.900;2022-11-15T09:26:21;6.57;87.40
70676;DHT22;59069;52.242;20.900;2022-11-15T09:28:46;6.58;87.17
70676;DHT22;59069;52.242;20.900;2022-11-15T09:31:12;6.58;87.24
70676;DHT22;59069;52.242;20.900;2022-11-15T09:33:38;6.61;87.07
70676;DHT22;59069;52.242;20.900;2022-11-15T09:36:08;6.61;86.92
70676;DHT22;59069;52.242;20.900;2022-11-15T09:38:34;6.65;87.04
70676;DHT22;59069;52.242;20.900;2022-11-15T09:43:50;6.67;86.25
70676;DHT22;59069;52.242;20.900;2022-11-15T09:49:08;6.60;86.15
70676;DHT22;59069;52.242;20.900;2022-11-15T09:51:35;6.58;86.37
70676;DHT22;59069;52.242;20.900;2022-11-15T09:56:36;6.64;86.61
70676;DHT22;59069;52.242;20.900;2022-11-15T10:04:41;6.70;86.43
70676;DHT22;59069;52.242;20.900;2022-11-15T10:07:21;6.65;86.35
70676;DHT22;59069;52.242;20.900;2022-11-15T10:09:56;6.70;86.40
70676;DHT22;59069;52.242;20.900;2022-11-15T10:12:22;6.70;86.41
70676;DHT22;59069;52.242;20.900;2022-11-15T10:14:50;6.70;86.40
70676;DHT22;59069;52.242;20.900;2022-11-15T10:20:19;6.74;86.65
70676;DHT22;59069;52.242;20.900;2022-11-15T10:22:48;6.77;86.55
70676;DHT22;59069;52.242;20.900;2022-11-15T10:28:13;6.81;86.74
70676;DHT22;59069;52.242;20.900;2022-11-15T10:30:44;6.88;86.84
70676;DHT22;59069;52.242;20.900;2022-11-15T10:33:35;6.89;86.42
70676;DHT22;59069;52.242;20.900;2022-11-15T10:36:17;6.91;86.37
70676;DHT22;59069;52.242;20.900;2022-11-15T10:41:19;7.02;86.17
70676;DHT22;59069;52.242;20.900;2022-11-15T10:46:35;7.03;86.33
70676;DHT22;59069;52.242;20.900;2022-11-15T10:49:20;7.06;86.26
70676;DHT22;59069;52.242;20.900;2022-11-15T10:51:51;7.13;86.30
70676;DHT22;59069;52.242;20.900;2022-11-15T10:54:37;7.18;86.00
70676;DHT22;59069;52.242;20.900;2022-11-15T10:57:12;7.22;86.00
70676;DHT22;59069;52.242;20.900;2022-11-15T10:59:39;7.26;85.88
70676;DHT22;59069;52.242;20.900;2022-11-15T11:02:34;7.29;85.67
70676;DHT22;59069;52.242;20.900;2022-11-15T11:05:01;7.33;85.67
70676;DHT22;59069;52.242;20.900;2022-11-15T11:07:32;7.30;85.36
70676;DHT22;59069;52.242;20.900;2022-11-15T11:10:05;7.30;85.54
70676;DHT22;59069;52.242;20.900;2022-11-15T11:12:42;7.29;85.34
70676;DHT22;59069;52.242;20.900;2022-11-15T11:15:13;7.27;85.26
70676;DHT22;59069;52.242;20.900;2022-11-15T11:18:10;7.26;85.33
70676;DHT22;59069;52.242;20.900;2022-11-15T11:20:45;7.26;85.28
70676;DHT22;59069;52.242;20.900;2022-11-15T11:31:55;7.36;85.34
70676;DHT22;59069;52.242;20.900;2022-11-15T11:34:41;7.42;85.37
70676;DHT22;59069;52.242;20.900;2022-11-15T11:48:14;7.53;85.09
70676;DHT22;59069;52.242;20.900;2022-11-15T11:50:45;7.54;85.06
70676;DHT22;59069;52.242;20.900;2022-11-15T11:56:08;7.54;84.69
70676;DHT22;59069;52.242;20.900;2022-11-15T11:58:41;7.54;84.90
70676;DHT22;59069;52.242;20.900;2022-11-15T12:01:24;7.52;84.77
70676;DHT22;59069;52.242;20.900;2022-11-15T12:04:13;7.53;84.64
70676;DHT22;59069;52.242;20.900;2022-11-15T12:06:50;7.50;84.68
70676;DHT22;59069;52.242;20.900;2022-11-15T12:09:41;7.49;85.00
70676;DHT22;59069;52.242;20.900;2022-11-15T12:12:20;7.47;84.77
70676;DHT22;59069;52.242;20.900;2022-11-15T12:17:21;7.47;84.89
70676;DHT22;59069;52.242;20.900;2022-11-15T12:19:48;7.52;84.98
70676;DHT22;59069;52.242;20.900;2022-11-15T12:22:19;7.56;84.94
70676;DHT22;59069;52.242;20.900;2022-11-15T12:25:02;7.54;85.00
70676;DHT22;59069;52.242;20.900;2022-11-15T12:27:54;7.62;84.93
70676;DHT22;59069;52.242;20.900;2022-11-15T12:30:22;7.62;84.65
70676;DHT22;59069;52.242;20.900;2022-11-15T12:32:58;7.62;84.67
70676;DHT22;59069;52.242;20.900;2022-11-15T12:35:34;7.62;84.76
70676;DHT22;59069;52.242;20.900;2022-11-15T12:38:00;7.59;84.68
70676;DHT22;59069;52.242;20.900;2022-11-15T12:40:34;7.56;84.50
70676;DHT22;59069;52.242;20.900;2022-11-15T12:45:40;7.52;84.60
70676;DHT22;59069;52.242;20.900;2022-11-15T12:50:54;7.40;84.92
70676;DHT22;59069;52.242;20.900;2022-11-15T12:58:59;7.34;85.38
70676;DHT22;59069;52.242;20.900;2022-11-15T13:06:52;7.39;85.18
70676;DHT22;59069;52.242;20.900;2022-11-15T13:12:09;7.40;85.26
70676;DHT22;59069;52.242;20.900;2022-11-15T13:14:54;7.39;85.31
70676;DHT22;59069;52.242;20.900;2022-11-15T13:19:48;7.42;85.29
70676;DHT22;59069;52.242;20.900;2022-11-15T13:22:14;7.40;85.26
70676;DHT22;59069;52.242;20.900;2022-11-15T13:24:59;7.39;85.42
70676;DHT22;59069;52.242;20.900;2022-11-15T13:27:26;7.40;85.52
70676;DHT22;59069;52.242;20.900;2022-11-15T13:29:52;7.40;85.51
70676;DHT22;59069;52.242;20.900;2022-11-15T13:32:18;7.43;85.72
70676;DHT22;59069;52.242;20.900;2022-11-15T13:34:46;7.44;85.78
70676;DHT22;59069;52.242;20.900;2022-11-15T13:39:47;7.46;85.69
70676;DHT22;59069;52.242;20.900;2022-11-15T13:42:19;7.49;85.80
70676;DHT22;59069;52.242;20.900;2022-11-15T13:44:59;7.53;85.69
70676;DHT22;59069;52.242;20.900;2022-11-15T13:47:27;7.50;85.63
70676;DHT22;59069;52.242;20.900;2022-11-15T13:49:53;7.49;85.61
70676;DHT22;59069;52.242;20.900;2022-11-15T13:52:18;7.46;85.53
70676;DHT22;59069;52.242;20.900;2022-11-15T13:54:50;7.43;85.39
70676;DHT22;59069;52.242;20.900;2022-11-15T14:00:21;7.39;85.44
70676;DHT22;59069;52.242;20.900;2022-11-15T14:02:49;7.36;85.32
70676;DHT22;59069;52.242;20.900;2022-11-15T14:05:21;7.32;85.33
70676;DHT22;59069;52.242;20.900;2022-11-15T14:08:02;7.29;85.44
70676;DHT22;59069;52.242;20.900;2022-11-15T14:10:30;7.32;85.56
70676;DHT22;59069;52.242;20.900;2022-11-15T14:12:56;7.32;85.59
70676;DHT22;59069;52.242;20.900;2022-11-15T14:17:56;7.33;85.43
70676;DHT22;59069;52.242;20.900;2022-11-15T14:22:58;7.34;85.35
70676;DHT22;59069;52.242;20.900;2022-11-15T14:25:29;7.36;85.43
70676;DHT22;59069;52.242;20.900;2022-11-15T14:30:55;7.39;85.61
70676;DHT22;59069;52.242;20.900;2022-11-15T14:33:32;7.33;85.75
70676;DHT22;59069;52.242;20.900;2022-11-15T14:36:10;7.33;85.68
70676;DHT22;59069;52.242;20.900;2022-11-15T14:38:35;7.36;85.55
70676;DHT22;59069;52.242;20.900;2022-11-15T14:41:01;7.37;85.62
70676;DHT22;59069;52.242;20.900;2022-11-15T14:43:26;7.27;85.40
70676;DHT22;59069;52.242;20.900;2022-11-15T14:45:52;7.26;85.41
70676;DHT22;59069;52.242;20.900;2022-11-15T14:48:17;7.22;85.56
70676;DHT22;59069;52.242;20.900;2022-11-15T14:50:43;7.22;85.63
70676;DHT22;59069;52.242;20.900;2022-11-15T14:53:15;7.20;85.61
70676;DHT22;59069;52.242;20.900;2022-11-15T14:55:41;7.20;85.57
70676;DHT22;59069;52.242;20.900;2022-11-15T14:58:07;7.25;85.59
70676;DHT22;59069;52.242;20.900;2022-11-15T15:00:37;7.27;85.53
70676;DHT22;59069;52.242;20.900;2022-11-15T15:03:03;7.26;85.49
70676;DHT22;59069;52.242;20.900;2022-11-15T15:07:57;7.22;85.64
70676;DHT22;59069;52.242;20.900;2022-11-15T15:10:24;7.22;85.70
70676;DHT22;59069;52.242;20.900;2022-11-15T15:12:50;7.22;85.66
70676;DHT22;59069;52.242;20.900;2022-11-15T15:15:24;7.20;85.63
70676;DHT22;59069;52.242;20.900;2022-11-15T15:17:50;7.20;85.68
70676;DHT22;59069;52.242;20.900;2022-11-15T15:20:16;7.20;85.75
70676;DHT22;59069;52.242;20.900;2022-11-15T15:22:42;7.20;85.78
70676;DHT22;59069;52.242;20.900;2022-11-15T15:25:27;7.19;85.78
70676;DHT22;59069;52.242;20.900;2022-11-15T15:27:54;7.11;85.75
70676;DHT22;59069;52.242;20.900;2022-11-15T15:30:20;7.11;85.76
70676;DHT22;59069;52.242;20.900;2022-11-15T15:32:46;7.12;85.68
70676;DHT22;59069;52.242;20.900;2022-11-15T15:35:12;7.12;85.66
70676;DHT22;59069;52.242;20.900;2022-11-15T15:37:38;7.08;85.59
70676;DHT22;59069;52.242;20.900;2022-11-15T15:40:15;7.03;85.67
70676;DHT22;59069;52.242;20.900;2022-11-15T15:42:41;6.99;85.74
70676;DHT22;59069;52.242;20.900;2022-11-15T15:45:08;6.99;85.89
70676;DHT22;59069;52.242;20.900;2022-11-15T15:47:34;6.98;86.07
70676;DHT22;59069;52.242;20.900;2022-11-15T15:49:59;6.99;85.98
70676;DHT22;59069;52.242;20.900;2022-11-15T15:52:25;6.96;86.02
70676;DHT22;59069;52.242;20.900;2022-11-15T15:54:50;6.96;85.99
70676;DHT22;59069;52.242;20.900;2022-11-15T15:57:16;6.98;86.06
70676;DHT22;59069;52.242;20.900;2022-11-15T15:59:41;6.99;86.16
70676;DHT22;59069;52.242;20.900;2022-11-15T16:02:13;6.99;86.27
70676;DHT22;59069;52.242;20.900;2022-11-15T16:04:39;7.01;86.36
70676;DHT22;59069;52.242;20.900;2022-11-15T16:07:05;7.01;86.34
70676;DHT22;59069;52.242;20.900;2022-11-15T16:09:30;7.01;86.32
70676;DHT22;59069;52.242;20.900;2022-11-15T16:12:15;6.99;86.36
70676;DHT22;59069;52.242;20.900;2022-11-15T16:14:42;6.99;86.28
70676;DHT22;59069;52.242;20.900;2022-11-15T16:17:17;7.01;86.37
70676;DHT22;59069;52.242;20.900;2022-11-15T16:19:43;7.02;86.42
70676;DHT22;59069;52.242;20.900;2022-11-15T16:22:08;7.01;86.43
70676;DHT22;59069;52.242;20.900;2022-11-15T16:24:33;6.98;86.38
70676;DHT22;59069;52.242;20.900;2022-11-15T16:26:59;6.93;86.38
70676;DHT22;59069;52.242;20.900;2022-11-15T16:29:24;6.93;86.19
70676;DHT22;59069;52.242;20.900;2022-11-15T16:31:50;6.91;86.31
70676;DHT22;59069;52.242;20.900;2022-11-15T16:34:16;6.84;86.36
70676;DHT22;59069;52.242;20.900;2022-11-15T16:36:41;6.81;86.44
70676;DHT22;59069;52.242;20.900;2022-11-15T16:39:12;6.80;86.50
70676;DHT22;59069;52.242;20.900;2022-11-15T16:41:43;6.75;86.67
70676;DHT22;59069;52.242;20.900;2022-11-15T16:44:12;6.74;86.84
70676;DHT22;59069;52.242;20.900;2022-11-15T16:46:40;6.71;86.96
70676;DHT22;59069;52.242;20.900;2022-11-15T16:49:14;6.72;87.03
70676;DHT22;59069;52.242;20.900;2022-11-15T16:51:40;6.75;87.03
70676;DHT22;59069;52.242;20.900;2022-11-15T16:54:06;6.74;87.15
70676;DHT22;59069;52.242;20.900;2022-11-15T16:56:32;6.71;87.27
70676;DHT22;59069;52.242;20.900;2022-11-15T16:58:59;6.67;87.21
70676;DHT22;59069;52.242;20.900;2022-11-15T17:01:33;6.63;87.25
70676;DHT22;59069;52.242;20.900;2022-11-15T17:04:11;6.64;87.38
70676;DHT22;59069;52.242;20.900;2022-11-15T17:06:41;6.64;87.36
70676;DHT22;59069;52.242;20.900;2022-11-15T17:09:16;6.61;87.41
70676;DHT22;59069;52.242;20.900;2022-11-15T17:11:42;6.61;87.41
70676;DHT22;59069;52.242;20.900;2022-11-15T17:14:08;6.61;87.55
70676;DHT22;59069;52.242;20.900;2022-11-15T17:16:34;6.57;87.57
70676;DHT22;59069;52.242;20.900;2022-11-15T17:19:03;6.60;87.60
70676;DHT22;59069;52.242;20.900;2022-11-15T17:21:29;6.58;87.68
70676;DHT22;59069;52.242;20.900;2022-11-15T17:23:54;6.58;87.73
70676;DHT22;59069;52.242;20.900;2022-11-15T17:26:20;6.60;87.73
70676;DHT22;59069;52.242;20.900;2022-11-15T17:28:45;6.57;87.69
70676;DHT22;59069;52.242;20.900;2022-11-15T17:31:13;6.63;87.67
70676;DHT22;59069;52.242;20.900;2022-11-15T17:33:39;6.67;87.68
70676;DHT22;59069;52.242;20.900;2022-11-15T17:36:10;6.68;87.74
70676;DHT22;59069;52.242;20.900;2022-11-15T17:38:35;6.71;87.67
70676;DHT22;59069;52.242;20.900;2022-11-15T17:41:06;6.74;87.63
70676;DHT22;59069;52.242;20.900;2022-11-15T17:43:34;6.75;87.55
70676;DHT22;59069;52.242;20.900;2022-11-15T17:46:04;6.70;87.60
70676;DHT22;59069;52.242;20.900;2022-11-15T17:48:29;6.65;87.85